Portada
METAR-TAF:

METAR-TAF

Aeroports :

Aeroport de París-Orly

París-Orly, França

latitud: 48-44N, longitud: 002-24E, altitud: 89 m

Observació

L'informe es va fer fa 39 minuts, a les 20:00 UTC
Vent 3 kt del Est
Temperatura 21°C
Humitat 46%
Pressió 1017 hPa
Visibilitat 10 km o més
sense núvols per sota de 1500 mi sense presència de cumulonimbus.

METAR: LFPO 012000Z AUTO 10003KT CAVOK 21/09 Q1017 NOSIG

Hora: 22:39 (20:39 UTC)

Pronòstic

L'informe es va fer fa 3 hores i 39 minuts, a les 17:00 UTC
Pronòstic vàlid del 01 a les 18 UTC al 02 a les 24 UTC
Vent 8 kt del Est
Visibilitat 10 km o més
sense núvols per sota de 1500 mi sense presència de cumulonimbus.
Evolucionant progressivament
l' 02 a les 19 UTC al 02 a les 21 UTC
Vent 10 kt del Nord/Nord-Oest

TAF: LFPO 011700Z 0118/0224 10008KT CAVOK BECMG 0219/0221 34010KT

Observacions i pronòstics meteorològics de més de 4000 aeroports (METAR i TAF).

Les estacions disponibles són els punts grocs i vermells al mapa.

Posi el ratolí al punt desitjat per veure el nom de l'estació.

Feu clic per veure les observacions i els pronòstics meteorològics.

Per canviar el mapa: feu clic els botons verds amb una creu de color negre per apropar; al botó verd amb un guió per allunyar la imatge; o en les fletxes verdes per a mapes adjacents.


METAR-TAF: